sensor_id;sensor_type;location;lat;lon;timestamp;P1;durP1;ratioP1;P2;durP2;ratioP2
28166;SDS011;15455;53.376;-6.262;2023-10-31T00:01:31;29.00;;;14.25;;
28166;SDS011;15455;53.376;-6.262;2023-10-31T00:04:17;25.27;;;15.68;;
28166;SDS011;15455;53.376;-6.262;2023-10-31T00:07:03;31.02;;;13.93;;
28166;SDS011;15455;53.376;-6.262;2023-10-31T00:09:49;37.60;;;17.23;;
28166;SDS011;15455;53.376;-6.262;2023-10-31T00:12:34;34.65;;;18.58;;
28166;SDS011;15455;53.376;-6.262;2023-10-31T00:15:20;30.73;;;17.33;;
28166;SDS011;15455;53.376;-6.262;2023-10-31T00:18:06;33.95;;;18.05;;
28166;SDS011;15455;53.376;-6.262;2023-10-31T00:20:51;38.92;;;21.23;;
28166;SDS011;15455;53.376;-6.262;2023-10-31T00:23:44;35.50;;;18.55;;
28166;SDS011;15455;53.376;-6.262;2023-10-31T00:26:32;35.08;;;18.90;;
28166;SDS011;15455;53.376;-6.262;2023-10-31T00:29:18;38.30;;;20.00;;
28166;SDS011;15455;53.376;-6.262;2023-10-31T00:32:03;64.82;;;23.13;;
28166;SDS011;15455;53.376;-6.262;2023-10-31T00:34:51;64.78;;;24.52;;
28166;SDS011;15455;53.376;-6.262;2023-10-31T00:37:38;48.65;;;22.88;;
28166;SDS011;15455;53.376;-6.262;2023-10-31T00:40:24;53.03;;;23.80;;
28166;SDS011;15455;53.376;-6.262;2023-10-31T00:43:10;48.78;;;22.90;;
28166;SDS011;15455;53.376;-6.262;2023-10-31T00:45:55;56.70;;;22.98;;
28166;SDS011;15455;53.376;-6.262;2023-10-31T00:48:42;54.22;;;24.08;;
28166;SDS011;15455;53.376;-6.262;2023-10-31T00:51:27;67.15;;;24.67;;
28166;SDS011;15455;53.376;-6.262;2023-10-31T00:54:13;91.95;;;24.73;;
28166;SDS011;15455;53.376;-6.262;2023-10-31T00:56:59;81.57;;;25.10;;
28166;SDS011;15455;53.376;-6.262;2023-10-31T00:59:45;84.72;;;26.05;;
28166;SDS011;15455;53.376;-6.262;2023-10-31T01:02:30;71.85;;;24.50;;
28166;SDS011;15455;53.376;-6.262;2023-10-31T01:05:16;109.47;;;27.85;;
28166;SDS011;15455;53.376;-6.262;2023-10-31T01:08:01;101.25;;;25.48;;
28166;SDS011;15455;53.376;-6.262;2023-10-31T01:10:47;103.00;;;24.40;;
28166;SDS011;15455;53.376;-6.262;2023-10-31T01:13:32;89.10;;;22.77;;
28166;SDS011;15455;53.376;-6.262;2023-10-31T01:16:18;79.65;;;22.85;;
28166;SDS011;15455;53.376;-6.262;2023-10-31T01:19:04;83.93;;;23.27;;
28166;SDS011;15455;53.376;-6.262;2023-10-31T01:21:49;107.72;;;22.95;;
28166;SDS011;15455;53.376;-6.262;2023-10-31T01:24:35;64.85;;;21.05;;
28166;SDS011;15455;53.376;-6.262;2023-10-31T01:27:20;62.35;;;20.17;;
28166;SDS011;15455;53.376;-6.262;2023-10-31T01:30:06;46.20;;;18.20;;
28166;SDS011;15455;53.376;-6.262;2023-10-31T01:32:52;50.55;;;19.27;;
28166;SDS011;15455;53.376;-6.262;2023-10-31T01:35:37;54.65;;;17.95;;
28166;SDS011;15455;53.376;-6.262;2023-10-31T01:38:23;50.20;;;16.30;;
28166;SDS011;15455;53.376;-6.262;2023-10-31T01:41:09;44.92;;;17.10;;
28166;SDS011;15455;53.376;-6.262;2023-10-31T01:43:54;55.35;;;16.27;;
28166;SDS011;15455;53.376;-6.262;2023-10-31T01:46:40;41.47;;;15.77;;
28166;SDS011;15455;53.376;-6.262;2023-10-31T01:49:26;40.63;;;15.15;;
28166;SDS011;15455;53.376;-6.262;2023-10-31T01:52:11;42.22;;;16.48;;
28166;SDS011;15455;53.376;-6.262;2023-10-31T01:54:57;38.13;;;15.52;;
28166;SDS011;15455;53.376;-6.262;2023-10-31T01:57:43;34.13;;;14.98;;
28166;SDS011;15455;53.376;-6.262;2023-10-31T02:00:30;36.72;;;14.45;;
28166;SDS011;15455;53.376;-6.262;2023-10-31T02:03:16;38.60;;;13.52;;
28166;SDS011;15455;53.376;-6.262;2023-10-31T02:06:02;34.85;;;15.20;;
28166;SDS011;15455;53.376;-6.262;2023-10-31T02:08:48;51.28;;;15.95;;
28166;SDS011;15455;53.376;-6.262;2023-10-31T02:11:34;43.50;;;14.35;;
28166;SDS011;15455;53.376;-6.262;2023-10-31T02:14:20;45.38;;;13.68;;
28166;SDS011;15455;53.376;-6.262;2023-10-31T02:17:07;39.10;;;12.65;;
28166;SDS011;15455;53.376;-6.262;2023-10-31T02:19:53;35.35;;;14.65;;
28166;SDS011;15455;53.376;-6.262;2023-10-31T02:22:39;50.72;;;14.45;;
28166;SDS011;15455;53.376;-6.262;2023-10-31T02:25:24;32.60;;;13.35;;
28166;SDS011;15455;53.376;-6.262;2023-10-31T02:28:10;26.77;;;13.05;;
28166;SDS011;15455;53.376;-6.262;2023-10-31T02:30:55;28.35;;;13.90;;
28166;SDS011;15455;53.376;-6.262;2023-10-31T02:33:40;21.90;;;13.32;;
28166;SDS011;15455;53.376;-6.262;2023-10-31T02:36:26;25.15;;;13.27;;
28166;SDS011;15455;53.376;-6.262;2023-10-31T02:39:12;27.23;;;13.73;;
28166;SDS011;15455;53.376;-6.262;2023-10-31T02:41:57;25.55;;;13.63;;
28166;SDS011;15455;53.376;-6.262;2023-10-31T02:44:43;30.73;;;14.75;;
28166;SDS011;15455;53.376;-6.262;2023-10-31T02:47:28;31.52;;;16.45;;
28166;SDS011;15455;53.376;-6.262;2023-10-31T02:50:14;32.88;;;16.27;;
28166;SDS011;15455;53.376;-6.262;2023-10-31T02:52:59;32.95;;;15.55;;
28166;SDS011;15455;53.376;-6.262;2023-10-31T02:55:45;32.22;;;16.35;;
28166;SDS011;15455;53.376;-6.262;2023-10-31T02:58:30;26.85;;;16.00;;
28166;SDS011;15455;53.376;-6.262;2023-10-31T03:01:16;33.08;;;15.38;;
28166;SDS011;15455;53.376;-6.262;2023-10-31T03:04:03;28.52;;;16.02;;
28166;SDS011;15455;53.376;-6.262;2023-10-31T03:06:49;31.15;;;16.88;;
28166;SDS011;15455;53.376;-6.262;2023-10-31T03:09:35;34.33;;;14.57;;
28166;SDS011;15455;53.376;-6.262;2023-10-31T03:12:20;23.58;;;14.43;;
28166;SDS011;15455;53.376;-6.262;2023-10-31T03:15:06;26.88;;;15.60;;
28166;SDS011;15455;53.376;-6.262;2023-10-31T03:17:52;33.83;;;15.88;;
28166;SDS011;15455;53.376;-6.262;2023-10-31T03:20:39;33.75;;;15.95;;
28166;SDS011;15455;53.376;-6.262;2023-10-31T03:23:25;30.65;;;15.90;;
28166;SDS011;15455;53.376;-6.262;2023-10-31T03:26:11;35.42;;;18.48;;
28166;SDS011;15455;53.376;-6.262;2023-10-31T03:28:56;37.25;;;16.75;;
28166;SDS011;15455;53.376;-6.262;2023-10-31T03:31:42;32.58;;;16.63;;
28166;SDS011;15455;53.376;-6.262;2023-10-31T03:34:28;30.40;;;15.20;;
28166;SDS011;15455;53.376;-6.262;2023-10-31T03:37:14;29.90;;;16.02;;
28166;SDS011;15455;53.376;-6.262;2023-10-31T03:39:59;31.83;;;15.55;;
28166;SDS011;15455;53.376;-6.262;2023-10-31T03:42:45;42.75;;;14.95;;
28166;SDS011;15455;53.376;-6.262;2023-10-31T03:45:30;29.63;;;15.13;;
28166;SDS011;15455;53.376;-6.262;2023-10-31T03:48:17;23.95;;;13.45;;
28166;SDS011;15455;53.376;-6.262;2023-10-31T03:51:03;30.45;;;14.82;;
28166;SDS011;15455;53.376;-6.262;2023-10-31T03:53:48;25.63;;;12.52;;
28166;SDS011;15455;53.376;-6.262;2023-10-31T03:56:40;23.00;;;12.27;;
28166;SDS011;15455;53.376;-6.262;2023-10-31T03:59:27;22.35;;;12.13;;
28166;SDS011;15455;53.376;-6.262;2023-10-31T04:02:12;18.67;;;10.85;;
28166;SDS011;15455;53.376;-6.262;2023-10-31T04:04:59;20.60;;;10.27;;
28166;SDS011;15455;53.376;-6.262;2023-10-31T04:07:46;17.65;;;10.23;;
28166;SDS011;15455;53.376;-6.262;2023-10-31T04:10:32;14.00;;;7.43;;
28166;SDS011;15455;53.376;-6.262;2023-10-31T04:13:18;12.43;;;7.50;;
28166;SDS011;15455;53.376;-6.262;2023-10-31T04:16:03;11.23;;;6.90;;
28166;SDS011;15455;53.376;-6.262;2023-10-31T04:18:49;11.75;;;6.68;;
28166;SDS011;15455;53.376;-6.262;2023-10-31T04:21:34;9.52;;;6.47;;
28166;SDS011;15455;53.376;-6.262;2023-10-31T04:24:20;8.35;;;6.88;;
28166;SDS011;15455;53.376;-6.262;2023-10-31T04:27:05;12.40;;;6.28;;
28166;SDS011;15455;53.376;-6.262;2023-10-31T04:29:52;9.45;;;7.05;;
28166;SDS011;15455;53.376;-6.262;2023-10-31T04:32:37;7.97;;;6.78;;
28166;SDS011;15455;53.376;-6.262;2023-10-31T04:35:23;9.43;;;6.70;;
28166;SDS011;15455;53.376;-6.262;2023-10-31T04:38:08;11.43;;;7.45;;
28166;SDS011;15455;53.376;-6.262;2023-10-31T04:40:54;15.48;;;8.13;;
28166;SDS011;15455;53.376;-6.262;2023-10-31T04:43:39;13.73;;;8.50;;
28166;SDS011;15455;53.376;-6.262;2023-10-31T04:46:27;13.15;;;8.98;;
28166;SDS011;15455;53.376;-6.262;2023-10-31T04:49:12;20.75;;;9.48;;
28166;SDS011;15455;53.376;-6.262;2023-10-31T04:51:58;16.42;;;8.98;;
28166;SDS011;15455;53.376;-6.262;2023-10-31T04:54:43;13.20;;;9.18;;
28166;SDS011;15455;53.376;-6.262;2023-10-31T04:57:28;17.30;;;9.70;;
28166;SDS011;15455;53.376;-6.262;2023-10-31T05:00:14;22.27;;;9.77;;
28166;SDS011;15455;53.376;-6.262;2023-10-31T05:03:00;20.95;;;11.55;;
28166;SDS011;15455;53.376;-6.262;2023-10-31T05:05:47;20.50;;;10.65;;
28166;SDS011;15455;53.376;-6.262;2023-10-31T05:08:32;16.70;;;11.07;;
28166;SDS011;15455;53.376;-6.262;2023-10-31T05:11:18;18.20;;;10.20;;
28166;SDS011;15455;53.376;-6.262;2023-10-31T05:14:04;18.90;;;10.60;;
28166;SDS011;15455;53.376;-6.262;2023-10-31T05:16:49;21.95;;;11.10;;
28166;SDS011;15455;53.376;-6.262;2023-10-31T05:19:35;30.23;;;11.07;;
28166;SDS011;15455;53.376;-6.262;2023-10-31T05:22:20;19.80;;;11.60;;
28166;SDS011;15455;53.376;-6.262;2023-10-31T05:25:10;24.02;;;12.27;;
28166;SDS011;15455;53.376;-6.262;2023-10-31T05:27:55;22.25;;;12.18;;
28166;SDS011;15455;53.376;-6.262;2023-10-31T05:30:40;20.58;;;11.85;;
28166;SDS011;15455;53.376;-6.262;2023-10-31T05:33:26;21.83;;;10.43;;
28166;SDS011;15455;53.376;-6.262;2023-10-31T05:36:24;23.52;;;12.48;;
28166;SDS011;15455;53.376;-6.262;2023-10-31T05:39:10;24.00;;;11.77;;
28166;SDS011;15455;53.376;-6.262;2023-10-31T05:41:56;23.25;;;10.68;;
28166;SDS011;15455;53.376;-6.262;2023-10-31T05:44:41;18.70;;;9.45;;
28166;SDS011;15455;53.376;-6.262;2023-10-31T05:47:27;17.48;;;10.35;;
28166;SDS011;15455;53.376;-6.262;2023-10-31T05:50:13;21.50;;;11.52;;
28166;SDS011;15455;53.376;-6.262;2023-10-31T05:52:58;20.13;;;11.10;;
28166;SDS011;15455;53.376;-6.262;2023-10-31T05:55:43;14.48;;;9.90;;
28166;SDS011;15455;53.376;-6.262;2023-10-31T05:58:29;15.52;;;9.82;;
28166;SDS011;15455;53.376;-6.262;2023-10-31T06:01:14;19.33;;;10.73;;
28166;SDS011;15455;53.376;-6.262;2023-10-31T06:04:00;14.00;;;9.90;;
28166;SDS011;15455;53.376;-6.262;2023-10-31T06:06:45;23.65;;;10.25;;
28166;SDS011;15455;53.376;-6.262;2023-10-31T06:09:31;14.77;;;9.55;;
28166;SDS011;15455;53.376;-6.262;2023-10-31T06:12:18;17.90;;;10.70;;
28166;SDS011;15455;53.376;-6.262;2023-10-31T06:15:03;15.65;;;11.38;;
28166;SDS011;15455;53.376;-6.262;2023-10-31T06:17:49;14.52;;;9.85;;
28166;SDS011;15455;53.376;-6.262;2023-10-31T06:20:34;20.42;;;12.15;;
28166;SDS011;15455;53.376;-6.262;2023-10-31T06:23:21;23.15;;;11.73;;
28166;SDS011;15455;53.376;-6.262;2023-10-31T06:26:06;19.65;;;11.90;;
28166;SDS011;15455;53.376;-6.262;2023-10-31T06:28:51;20.85;;;12.63;;
28166;SDS011;15455;53.376;-6.262;2023-10-31T06:31:57;19.65;;;12.07;;
28166;SDS011;15455;53.376;-6.262;2023-10-31T06:34:42;15.05;;;9.90;;
28166;SDS011;15455;53.376;-6.262;2023-10-31T06:37:28;15.57;;;9.85;;
28166;SDS011;15455;53.376;-6.262;2023-10-31T06:40:14;15.07;;;9.27;;
28166;SDS011;15455;53.376;-6.262;2023-10-31T06:43:00;13.63;;;9.68;;
28166;SDS011;15455;53.376;-6.262;2023-10-31T06:45:46;15.35;;;10.65;;
28166;SDS011;15455;53.376;-6.262;2023-10-31T06:48:32;19.55;;;10.05;;
28166;SDS011;15455;53.376;-6.262;2023-10-31T06:51:18;15.05;;;9.43;;
28166;SDS011;15455;53.376;-6.262;2023-10-31T06:54:03;16.83;;;9.98;;
28166;SDS011;15455;53.376;-6.262;2023-10-31T06:56:49;16.05;;;9.60;;
28166;SDS011;15455;53.376;-6.262;2023-10-31T06:59:34;15.23;;;9.38;;
28166;SDS011;15455;53.376;-6.262;2023-10-31T07:02:20;16.48;;;10.27;;
28166;SDS011;15455;53.376;-6.262;2023-10-31T07:05:05;18.95;;;10.38;;
28166;SDS011;15455;53.376;-6.262;2023-10-31T07:07:51;14.23;;;9.90;;
28166;SDS011;15455;53.376;-6.262;2023-10-31T07:10:37;16.63;;;10.05;;
28166;SDS011;15455;53.376;-6.262;2023-10-31T07:13:22;19.25;;;10.32;;
28166;SDS011;15455;53.376;-6.262;2023-10-31T07:16:08;18.40;;;11.02;;
28166;SDS011;15455;53.376;-6.262;2023-10-31T07:18:53;22.30;;;11.38;;
28166;SDS011;15455;53.376;-6.262;2023-10-31T07:21:39;24.92;;;12.00;;
28166;SDS011;15455;53.376;-6.262;2023-10-31T07:24:24;24.02;;;12.65;;
28166;SDS011;15455;53.376;-6.262;2023-10-31T07:27:12;18.92;;;11.30;;
28166;SDS011;15455;53.376;-6.262;2023-10-31T07:29:58;16.27;;;11.35;;
28166;SDS011;15455;53.376;-6.262;2023-10-31T07:32:44;17.05;;;10.48;;
28166;SDS011;15455;53.376;-6.262;2023-10-31T07:35:30;15.70;;;10.63;;
28166;SDS011;15455;53.376;-6.262;2023-10-31T07:38:17;17.15;;;10.73;;
28166;SDS011;15455;53.376;-6.262;2023-10-31T07:41:03;13.77;;;9.30;;
28166;SDS011;15455;53.376;-6.262;2023-10-31T07:43:49;21.35;;;10.02;;
28166;SDS011;15455;53.376;-6.262;2023-10-31T07:46:34;12.43;;;9.10;;
28166;SDS011;15455;53.376;-6.262;2023-10-31T07:49:21;15.55;;;10.45;;
28166;SDS011;15455;53.376;-6.262;2023-10-31T07:52:07;19.25;;;10.10;;
28166;SDS011;15455;53.376;-6.262;2023-10-31T07:54:52;16.08;;;10.65;;
28166;SDS011;15455;53.376;-6.262;2023-10-31T07:57:38;15.55;;;9.82;;
28166;SDS011;15455;53.376;-6.262;2023-10-31T08:00:23;14.43;;;10.07;;
28166;SDS011;15455;53.376;-6.262;2023-10-31T08:03:09;15.15;;;8.18;;
28166;SDS011;15455;53.376;-6.262;2023-10-31T08:05:54;15.82;;;9.32;;
28166;SDS011;15455;53.376;-6.262;2023-10-31T08:08:40;12.07;;;8.57;;
28166;SDS011;15455;53.376;-6.262;2023-10-31T08:11:25;11.45;;;8.38;;
28166;SDS011;15455;53.376;-6.262;2023-10-31T08:14:11;9.43;;;8.05;;
28166;SDS011;15455;53.376;-6.262;2023-10-31T08:16:56;10.88;;;8.23;;
28166;SDS011;15455;53.376;-6.262;2023-10-31T08:19:42;13.57;;;7.65;;
28166;SDS011;15455;53.376;-6.262;2023-10-31T08:22:27;10.18;;;7.53;;
28166;SDS011;15455;53.376;-6.262;2023-10-31T08:25:13;9.35;;;6.75;;
28166;SDS011;15455;53.376;-6.262;2023-10-31T08:27:58;11.73;;;7.03;;
28166;SDS011;15455;53.376;-6.262;2023-10-31T08:30:44;8.70;;;6.60;;
28166;SDS011;15455;53.376;-6.262;2023-10-31T08:33:30;11.35;;;7.60;;
28166;SDS011;15455;53.376;-6.262;2023-10-31T08:36:15;10.68;;;7.55;;
28166;SDS011;15455;53.376;-6.262;2023-10-31T08:39:01;9.00;;;6.95;;
28166;SDS011;15455;53.376;-6.262;2023-10-31T08:41:57;12.07;;;7.72;;
28166;SDS011;15455;53.376;-6.262;2023-10-31T08:44:43;11.38;;;7.05;;
28166;SDS011;15455;53.376;-6.262;2023-10-31T08:47:29;14.25;;;7.95;;
28166;SDS011;15455;53.376;-6.262;2023-10-31T08:50:14;12.57;;;7.25;;
28166;SDS011;15455;53.376;-6.262;2023-10-31T08:53:00;8.20;;;6.05;;
28166;SDS011;15455;53.376;-6.262;2023-10-31T08:55:47;13.48;;;6.38;;
28166;SDS011;15455;53.376;-6.262;2023-10-31T08:58:32;9.70;;;6.90;;
28166;SDS011;15455;53.376;-6.262;2023-10-31T09:01:18;7.90;;;6.13;;
28166;SDS011;15455;53.376;-6.262;2023-10-31T09:04:05;8.15;;;5.93;;
28166;SDS011;15455;53.376;-6.262;2023-10-31T09:06:51;7.50;;;6.07;;
28166;SDS011;15455;53.376;-6.262;2023-10-31T09:09:36;9.18;;;5.22;;
28166;SDS011;15455;53.376;-6.262;2023-10-31T09:12:22;9.93;;;6.28;;
28166;SDS011;15455;53.376;-6.262;2023-10-31T09:15:08;10.40;;;6.40;;
28166;SDS011;15455;53.376;-6.262;2023-10-31T09:17:55;7.65;;;6.38;;
28166;SDS011;15455;53.376;-6.262;2023-10-31T09:20:40;9.02;;;6.43;;
28166;SDS011;15455;53.376;-6.262;2023-10-31T09:23:26;7.75;;;6.75;;
28166;SDS011;15455;53.376;-6.262;2023-10-31T09:26:12;10.10;;;6.82;;
28166;SDS011;15455;53.376;-6.262;2023-10-31T09:28:57;7.25;;;5.80;;
28166;SDS011;15455;53.376;-6.262;2023-10-31T09:31:42;7.63;;;5.50;;
28166;SDS011;15455;53.376;-6.262;2023-10-31T09:34:28;9.18;;;6.47;;
28166;SDS011;15455;53.376;-6.262;2023-10-31T09:37:13;15.43;;;6.43;;
28166;SDS011;15455;53.376;-6.262;2023-10-31T09:39:59;7.28;;;6.53;;
28166;SDS011;15455;53.376;-6.262;2023-10-31T09:42:44;7.07;;;6.38;;
28166;SDS011;15455;53.376;-6.262;2023-10-31T09:45:31;9.43;;;6.38;;
28166;SDS011;15455;53.376;-6.262;2023-10-31T09:48:18;7.95;;;5.57;;
28166;SDS011;15455;53.376;-6.262;2023-10-31T09:51:04;6.93;;;6.22;;
28166;SDS011;15455;53.376;-6.262;2023-10-31T09:53:53;6.68;;;5.85;;
28166;SDS011;15455;53.376;-6.262;2023-10-31T09:56:40;9.07;;;5.15;;
28166;SDS011;15455;53.376;-6.262;2023-10-31T09:59:26;7.25;;;5.85;;
28166;SDS011;15455;53.376;-6.262;2023-10-31T10:02:12;5.85;;;5.35;;
28166;SDS011;15455;53.376;-6.262;2023-10-31T10:04:58;11.05;;;6.20;;
28166;SDS011;15455;53.376;-6.262;2023-10-31T10:07:44;7.47;;;6.25;;
28166;SDS011;15455;53.376;-6.262;2023-10-31T10:10:30;11.48;;;6.97;;
28166;SDS011;15455;53.376;-6.262;2023-10-31T10:13:17;8.82;;;5.97;;
28166;SDS011;15455;53.376;-6.262;2023-10-31T10:16:03;7.45;;;5.55;;
28166;SDS011;15455;53.376;-6.262;2023-10-31T10:18:49;6.60;;;5.88;;
28166;SDS011;15455;53.376;-6.262;2023-10-31T10:21:45;6.07;;;4.72;;
28166;SDS011;15455;53.376;-6.262;2023-10-31T10:24:38;6.28;;;5.78;;
28166;SDS011;15455;53.376;-6.262;2023-10-31T10:27:24;6.75;;;5.20;;
28166;SDS011;15455;53.376;-6.262;2023-10-31T10:30:10;5.07;;;4.68;;
28166;SDS011;15455;53.376;-6.262;2023-10-31T10:32:57;5.82;;;5.25;;
28166;SDS011;15455;53.376;-6.262;2023-10-31T10:35:43;6.18;;;4.68;;
28166;SDS011;15455;53.376;-6.262;2023-10-31T10:38:29;5.43;;;4.13;;
28166;SDS011;15455;53.376;-6.262;2023-10-31T10:41:18;8.45;;;4.75;;
28166;SDS011;15455;53.376;-6.262;2023-10-31T10:44:06;4.25;;;3.95;;
28166;SDS011;15455;53.376;-6.262;2023-10-31T10:46:54;4.13;;;3.72;;
28166;SDS011;15455;53.376;-6.262;2023-10-31T10:49:41;4.45;;;4.05;;
28166;SDS011;15455;53.376;-6.262;2023-10-31T10:52:30;2.80;;;2.53;;
28166;SDS011;15455;53.376;-6.262;2023-10-31T10:55:26;3.83;;;2.67;;
28166;SDS011;15455;53.376;-6.262;2023-10-31T10:58:22;3.38;;;2.40;;
28166;SDS011;15455;53.376;-6.262;2023-10-31T11:01:19;2.15;;;1.70;;
28166;SDS011;15455;53.376;-6.262;2023-10-31T11:04:05;5.75;;;2.30;;
28166;SDS011;15455;53.376;-6.262;2023-10-31T11:06:52;3.33;;;1.83;;
28166;SDS011;15455;53.376;-6.262;2023-10-31T11:09:38;3.38;;;1.30;;
28166;SDS011;15455;53.376;-6.262;2023-10-31T11:12:24;2.25;;;1.40;;
28166;SDS011;15455;53.376;-6.262;2023-10-31T11:15:14;2.45;;;1.60;;
28166;SDS011;15455;53.376;-6.262;2023-10-31T11:18:01;3.08;;;1.20;;
28166;SDS011;15455;53.376;-6.262;2023-10-31T11:20:48;3.58;;;1.30;;
28166;SDS011;15455;53.376;-6.262;2023-10-31T11:23:33;3.53;;;1.33;;
28166;SDS011;15455;53.376;-6.262;2023-10-31T11:26:21;5.07;;;1.23;;
28166;SDS011;15455;53.376;-6.262;2023-10-31T11:29:06;3.65;;;1.10;;
28166;SDS011;15455;53.376;-6.262;2023-10-31T11:31:54;1.02;;;0.90;;
28166;SDS011;15455;53.376;-6.262;2023-10-31T11:34:41;3.55;;;1.42;;
28166;SDS011;15455;53.376;-6.262;2023-10-31T11:37:33;0.80;;;0.80;;
28166;SDS011;15455;53.376;-6.262;2023-10-31T11:40:20;3.42;;;1.55;;
28166;SDS011;15455;53.376;-6.262;2023-10-31T11:43:07;2.05;;;1.10;;
28166;SDS011;15455;53.376;-6.262;2023-10-31T11:45:53;2.45;;;1.30;;
28166;SDS011;15455;53.376;-6.262;2023-10-31T11:48:49;4.53;;;0.95;;
28166;SDS011;15455;53.376;-6.262;2023-10-31T11:51:36;2.10;;;1.15;;
28166;SDS011;15455;53.376;-6.262;2023-10-31T11:54:22;2.70;;;1.38;;
28166;SDS011;15455;53.376;-6.262;2023-10-31T11:57:07;0.90;;;0.90;;
28166;SDS011;15455;53.376;-6.262;2023-10-31T11:59:53;1.67;;;0.98;;
28166;SDS011;15455;53.376;-6.262;2023-10-31T12:02:38;3.83;;;1.00;;
28166;SDS011;15455;53.376;-6.262;2023-10-31T12:05:24;1.40;;;0.90;;
28166;SDS011;15455;53.376;-6.262;2023-10-31T12:08:09;2.22;;;0.93;;
28166;SDS011;15455;53.376;-6.262;2023-10-31T12:11:11;1.42;;;0.80;;
28166;SDS011;15455;53.376;-6.262;2023-10-31T12:14:02;2.28;;;1.20;;
28166;SDS011;15455;53.376;-6.262;2023-10-31T12:16:51;1.50;;;0.90;;
28166;SDS011;15455;53.376;-6.262;2023-10-31T12:19:36;1.90;;;0.88;;
28166;SDS011;15455;53.376;-6.262;2023-10-31T12:22:22;1.05;;;0.70;;
28166;SDS011;15455;53.376;-6.262;2023-10-31T12:25:08;1.52;;;0.90;;
28166;SDS011;15455;53.376;-6.262;2023-10-31T12:27:55;4.00;;;0.88;;
28166;SDS011;15455;53.376;-6.262;2023-10-31T12:30:44;1.30;;;0.75;;
28166;SDS011;15455;53.376;-6.262;2023-10-31T12:33:33;1.45;;;0.82;;
28166;SDS011;15455;53.376;-6.262;2023-10-31T12:36:19;3.63;;;0.65;;
28166;SDS011;15455;53.376;-6.262;2023-10-31T12:39:06;0.80;;;0.75;;
28166;SDS011;15455;53.376;-6.262;2023-10-31T12:41:55;3.50;;;0.90;;
28166;SDS011;15455;53.376;-6.262;2023-10-31T12:44:43;0.98;;;0.75;;
28166;SDS011;15455;53.376;-6.262;2023-10-31T12:47:29;3.35;;;1.15;;
28166;SDS011;15455;53.376;-6.262;2023-10-31T12:50:17;0.85;;;0.52;;
28166;SDS011;15455;53.376;-6.262;2023-10-31T12:53:03;2.42;;;1.05;;
28166;SDS011;15455;53.376;-6.262;2023-10-31T12:55:49;1.75;;;0.75;;
28166;SDS011;15455;53.376;-6.262;2023-10-31T12:58:35;3.03;;;1.02;;
28166;SDS011;15455;53.376;-6.262;2023-10-31T13:01:21;2.53;;;1.15;;
28166;SDS011;15455;53.376;-6.262;2023-10-31T13:04:07;2.28;;;0.90;;
28166;SDS011;15455;53.376;-6.262;2023-10-31T13:07:00;3.25;;;1.30;;
28166;SDS011;15455;53.376;-6.262;2023-10-31T13:09:48;5.10;;;1.75;;
28166;SDS011;15455;53.376;-6.262;2023-10-31T13:12:34;4.63;;;1.15;;
28166;SDS011;15455;53.376;-6.262;2023-10-31T13:15:20;1.45;;;1.30;;
28166;SDS011;15455;53.376;-6.262;2023-10-31T13:18:07;2.85;;;1.27;;
28166;SDS011;15455;53.376;-6.262;2023-10-31T13:20:56;5.15;;;1.27;;
28166;SDS011;15455;53.376;-6.262;2023-10-31T13:23:41;6.63;;;1.40;;
28166;SDS011;15455;53.376;-6.262;2023-10-31T13:26:30;3.22;;;1.30;;
28166;SDS011;15455;53.376;-6.262;2023-10-31T13:29:15;8.93;;;1.88;;
28166;SDS011;15455;53.376;-6.262;2023-10-31T13:32:01;6.72;;;1.90;;
28166;SDS011;15455;53.376;-6.262;2023-10-31T13:34:49;6.63;;;1.77;;
28166;SDS011;15455;53.376;-6.262;2023-10-31T13:37:35;7.40;;;2.20;;
28166;SDS011;15455;53.376;-6.262;2023-10-31T13:40:20;6.07;;;2.30;;
28166;SDS011;15455;53.376;-6.262;2023-10-31T13:43:07;3.88;;;2.03;;
28166;SDS011;15455;53.376;-6.262;2023-10-31T13:45:53;4.63;;;1.88;;
28166;SDS011;15455;53.376;-6.262;2023-10-31T13:48:39;4.18;;;1.40;;
28166;SDS011;15455;53.376;-6.262;2023-10-31T13:51:24;4.20;;;1.67;;
28166;SDS011;15455;53.376;-6.262;2023-10-31T13:54:09;6.00;;;1.45;;
28166;SDS011;15455;53.376;-6.262;2023-10-31T13:56:55;4.05;;;1.77;;
28166;SDS011;15455;53.376;-6.262;2023-10-31T13:59:40;2.65;;;1.40;;
28166;SDS011;15455;53.376;-6.262;2023-10-31T14:02:26;2.22;;;1.50;;
28166;SDS011;15455;53.376;-6.262;2023-10-31T14:05:13;4.32;;;1.05;;
28166;SDS011;15455;53.376;-6.262;2023-10-31T14:08:02;4.88;;;1.10;;
28166;SDS011;15455;53.376;-6.262;2023-10-31T14:10:48;3.65;;;1.33;;
28166;SDS011;15455;53.376;-6.262;2023-10-31T14:13:35;2.30;;;1.35;;
28166;SDS011;15455;53.376;-6.262;2023-10-31T14:16:21;1.52;;;1.42;;
28166;SDS011;15455;53.376;-6.262;2023-10-31T14:19:07;5.97;;;1.60;;
28166;SDS011;15455;53.376;-6.262;2023-10-31T14:21:53;3.75;;;2.65;;
28166;SDS011;15455;53.376;-6.262;2023-10-31T14:24:40;2.00;;;1.40;;
28166;SDS011;15455;53.376;-6.262;2023-10-31T14:27:25;2.88;;;1.30;;
28166;SDS011;15455;53.376;-6.262;2023-10-31T14:30:11;10.15;;;1.80;;
28166;SDS011;15455;53.376;-6.262;2023-10-31T14:32:58;1.38;;;1.23;;
28166;SDS011;15455;53.376;-6.262;2023-10-31T14:35:43;6.95;;;1.95;;
28166;SDS011;15455;53.376;-6.262;2023-10-31T14:38:29;2.72;;;1.27;;
28166;SDS011;15455;53.376;-6.262;2023-10-31T14:41:14;4.05;;;1.42;;
28166;SDS011;15455;53.376;-6.262;2023-10-31T14:44:00;34.72;;;3.80;;
28166;SDS011;15455;53.376;-6.262;2023-10-31T14:46:48;13.70;;;3.25;;
28166;SDS011;15455;53.376;-6.262;2023-10-31T14:49:34;24.98;;;4.35;;
28166;SDS011;15455;53.376;-6.262;2023-10-31T14:52:20;3.75;;;1.73;;
28166;SDS011;15455;53.376;-6.262;2023-10-31T14:55:06;5.15;;;1.63;;
28166;SDS011;15455;53.376;-6.262;2023-10-31T14:57:54;4.53;;;1.05;;
28166;SDS011;15455;53.376;-6.262;2023-10-31T15:00:39;1.75;;;1.30;;
28166;SDS011;15455;53.376;-6.262;2023-10-31T15:03:25;5.68;;;1.52;;
28166;SDS011;15455;53.376;-6.262;2023-10-31T15:06:11;7.43;;;2.50;;
28166;SDS011;15455;53.376;-6.262;2023-10-31T15:08:56;2.85;;;1.75;;
28166;SDS011;15455;53.376;-6.262;2023-10-31T15:11:42;5.63;;;1.90;;
28166;SDS011;15455;53.376;-6.262;2023-10-31T15:14:27;15.75;;;3.45;;
28166;SDS011;15455;53.376;-6.262;2023-10-31T15:17:13;6.55;;;1.60;;
28166;SDS011;15455;53.376;-6.262;2023-10-31T15:19:58;3.95;;;1.10;;
28166;SDS011;15455;53.376;-6.262;2023-10-31T15:22:44;4.68;;;1.60;;
28166;SDS011;15455;53.376;-6.262;2023-10-31T15:25:29;2.70;;;1.08;;
28166;SDS011;15455;53.376;-6.262;2023-10-31T15:28:15;2.78;;;1.17;;
28166;SDS011;15455;53.376;-6.262;2023-10-31T15:31:01;5.10;;;0.90;;
28166;SDS011;15455;53.376;-6.262;2023-10-31T15:33:47;2.83;;;1.00;;
28166;SDS011;15455;53.376;-6.262;2023-10-31T15:36:33;3.53;;;0.90;;
28166;SDS011;15455;53.376;-6.262;2023-10-31T15:39:19;3.55;;;1.02;;
28166;SDS011;15455;53.376;-6.262;2023-10-31T15:42:05;1.20;;;0.80;;
28166;SDS011;15455;53.376;-6.262;2023-10-31T15:44:51;2.38;;;1.15;;
28166;SDS011;15455;53.376;-6.262;2023-10-31T15:47:37;4.28;;;2.30;;
28166;SDS011;15455;53.376;-6.262;2023-10-31T15:50:22;8.07;;;2.97;;
28166;SDS011;15455;53.376;-6.262;2023-10-31T15:53:08;12.45;;;4.75;;
28166;SDS011;15455;53.376;-6.262;2023-10-31T15:55:53;16.63;;;4.55;;
28166;SDS011;15455;53.376;-6.262;2023-10-31T15:58:39;12.07;;;5.18;;
28166;SDS011;15455;53.376;-6.262;2023-10-31T16:01:25;10.82;;;4.40;;
28166;SDS011;15455;53.376;-6.262;2023-10-31T16:04:10;9.95;;;3.95;;
28166;SDS011;15455;53.376;-6.262;2023-10-31T16:06:56;9.52;;;4.30;;
28166;SDS011;15455;53.376;-6.262;2023-10-31T16:09:42;9.52;;;3.83;;
28166;SDS011;15455;53.376;-6.262;2023-10-31T16:12:29;8.95;;;3.75;;